Time;durP1;ratioP1;P1;durP2;ratioP2;P2;SDS_P1;SDS_P2;PMS_P1;PMS_P2;Temp;Humidity;BMP_temperature;BMP_pressure;BME280_temperature;BME280_humidity;BME280_pressure;Samples;Min_cycle;Max_cycle;Signal;HPM_P1;HPM_P2
2022/09/15 00:00:10;;;;;;;15.88;9.80;;;;;;;15.13;92.21;100764.38;5017409;28;20037;-71
2022/09/15 00:02:36;;;;;;;16.13;9.48;;;;;;;15.15;92.13;100764.38;5017194;28;20127;-71
2022/09/15 00:05:03;;;;;;;14.57;9.32;;;;;;;15.16;91.95;100755.75;5015517;28;20025;-71
2022/09/15 00:07:28;;;;;;;12.85;9.70;;;;;;;15.15;91.97;100764.38;5017108;28;20489;-71
2022/09/15 00:09:53;;;;;;;16.80;10.30;;;;;;;15.17;92.15;100752.34;5017689;28;20409;-71
2022/09/15 00:12:19;;;;;;;15.77;10.00;;;;;;;15.16;92.48;100748.00;5008315;28;20045;-71
2022/09/15 00:14:44;;;;;;;15.05;10.10;;;;;;;15.12;93.00;100754.03;5013076;28;20036;-71
2022/09/15 00:17:09;;;;;;;13.98;10.32;;;;;;;15.16;92.63;100746.25;5014863;28;20765;-71
2022/09/15 00:19:35;;;;;;;15.32;10.00;;;;;;;15.18;92.81;100747.16;5015191;28;20084;-71
2022/09/15 00:22:00;;;;;;;20.77;10.38;;;;;;;15.15;92.84;100744.53;5015978;28;20452;-71
2022/09/15 00:24:26;;;;;;;14.50;9.70;;;;;;;15.18;92.97;100741.97;5016424;28;20041;-69
2022/09/15 00:26:51;;;;;;;15.55;9.57;;;;;;;15.13;93.54;100743.66;5019138;28;20612;-71
2022/09/15 00:29:17;;;;;;;13.30;9.88;;;;;;;15.13;92.88;100743.66;5000303;28;20029;-70
2022/09/15 00:31:42;;;;;;;18.17;9.60;;;;;;;15.14;93.22;100744.53;5016848;28;20033;-70
2022/09/15 00:34:11;;;;;;;14.18;10.07;;;;;;;15.15;93.01;100741.94;5016943;28;20029;-69
2022/09/15 00:36:36;;;;;;;14.48;10.02;;;;;;;15.18;93.65;100730.75;5016321;28;20480;-71
2022/09/15 00:39:02;;;;;;;14.50;10.52;;;;;;;15.16;93.24;100735.91;5000195;28;20064;-71
2022/09/15 00:41:28;;;;;;;15.98;10.20;;;;;;;15.16;93.69;100729.88;5015389;28;20056;-71
2022/09/15 00:44:21;;;;;;;15.52;10.90;;;;;;;15.12;93.75;100730.72;5020517;28;20029;-71
2022/09/15 00:46:50;;;;;;;14.88;9.88;;;;;;;15.17;93.61;100735.06;4981335;28;20033;-71
2022/09/15 00:49:22;;;;;;;15.50;10.75;;;;;;;15.19;93.26;100735.06;5018232;28;20116;-70
2022/09/15 00:51:49;;;;;;;15.00;10.00;;;;;;;15.13;94.13;100729.84;5012377;28;20143;-71
2022/09/15 00:54:21;;;;;;;16.38;10.50;;;;;;;15.18;94.26;100738.53;5013620;28;20026;-71
2022/09/15 00:56:50;;;;;;;17.88;10.88;;;;;;;15.15;93.79;100749.72;5015504;28;20030;-71
2022/09/15 00:59:22;;;;;;;18.65;11.07;;;;;;;15.18;93.97;100743.72;5015945;28;20047;-71
2022/09/15 01:01:53;;;;;;;16.98;11.25;;;;;;;15.16;94.10;100756.63;5017891;28;20128;-71
2022/09/15 01:04:19;;;;;;;17.00;11.18;;;;;;;15.17;94.27;100749.75;5015040;28;20080;-70
2022/09/15 01:06:51;;;;;;;15.82;10.68;;;;;;;15.22;93.96;100753.22;5015979;28;20612;-70
2022/09/15 01:09:29;;;;;;;15.15;10.80;;;;;;;15.19;94.69;100758.38;5016083;28;20072;-70
2022/09/15 01:11:55;;;;;;;15.70;10.52;;;;;;;15.17;94.57;100752.34;5014971;28;20055;-70
2022/09/15 01:14:21;;;;;;;19.85;10.77;;;;;;;15.17;94.69;100752.34;5014687;28;20029;-71
2022/09/15 01:16:52;;;;;;;15.82;11.10;;;;;;;15.22;94.54;100753.22;5016760;28;20141;-70
2022/09/15 01:19:32;;;;;;;15.10;10.18;;;;;;;15.18;94.91;100752.34;5009701;28;20033;-71
2022/09/15 01:22:29;;;;;;;16.98;10.88;;;;;;;15.22;94.78;100748.03;5012837;28;20072;-70
2022/09/15 01:25:17;;;;;;;15.68;10.50;;;;;;;15.25;94.93;100748.94;5012380;28;20087;-70
2022/09/15 01:28:34;;;;;;;16.02;10.40;;;;;;;15.32;94.53;100749.84;5015688;28;20025;-71
2022/09/15 01:31:03;;;;;;;14.27;10.18;;;;;;;15.25;94.74;100745.47;4982817;28;20108;-70
2022/09/15 01:33:48;;;;;;;;;;;;;;;15.39;93.52;100738.66;5014837;28;20026;-71
2022/09/15 01:36:21;;;;;;;16.25;10.82;;;;;;;15.26;94.79;100744.63;5014737;28;20388;-71
2022/09/15 01:38:59;;;;;;;14.40;10.45;;;;;;;15.22;94.84;100740.25;5014053;28;20034;-71
2022/09/15 01:41:43;;;;;;;13.30;9.73;;;;;;;15.23;95.03;100729.06;4993750;28;20048;-71
2022/09/15 01:44:13;;;;;;;15.75;9.93;;;;;;;15.25;94.59;100741.16;5015875;28;20065;-72
2022/09/15 01:47:01;;;;;;;14.05;9.35;;;;;;;15.21;94.32;100739.41;4999812;28;20492;-69
2022/09/15 01:49:33;;;;;;;16.63;9.85;;;;;;;15.25;94.49;100742.91;5013932;28;20080;-69
2022/09/15 01:51:59;;;;;;;16.08;9.77;;;;;;;15.17;94.34;100735.06;4998703;28;20582;-70
2022/09/15 01:54:29;;;;;;;13.75;9.57;;;;;;;15.21;94.30;100746.31;5007026;28;20053;-69
2022/09/15 01:56:55;;;;;;;13.15;9.13;;;;;;;15.15;94.12;100741.09;5018632;28;20018;-70
2022/09/15 01:59:21;;;;;;;12.90;9.27;;;;;;;15.13;93.76;100735.91;5015266;28;20034;-71
2022/09/15 02:01:56;;;;;;;12.43;9.70;;;;;;;15.14;93.63;100732.44;5014994;28;20037;-71
2022/09/15 02:04:33;;;;;;;14.73;10.52;;;;;;;15.16;93.50;100733.31;5015291;28;20033;-71
2022/09/15 02:07:02;;;;;;;17.40;9.90;;;;;;;15.13;93.63;100732.44;5017210;28;20022;-71
2022/09/15 02:09:34;;;;;;;16.48;10.45;;;;;;;15.08;93.74;100729.81;5016249;28;20328;-71
2022/09/15 02:12:05;;;;;;;14.40;9.95;;;;;;;15.09;93.77;100730.69;5017235;28;20079;-71
2022/09/15 02:14:46;;;;;;;15.35;10.00;;;;;;;15.06;94.13;100736.72;5014336;28;20029;-71
2022/09/15 02:17:18;;;;;;;15.43;9.68;;;;;;;15.10;93.69;100740.19;5016822;28;20119;-71
2022/09/15 02:19:49;;;;;;;14.95;10.15;;;;;;;15.07;93.48;100735.00;5016234;28;20488;-71
2022/09/15 02:22:22;;;;;;;15.38;9.95;;;;;;;15.08;93.21;100736.72;5013077;28;20044;-72
2022/09/15 02:24:56;;;;;;;16.83;9.35;;;;;;;15.07;93.06;100735.84;5020651;28;20038;-71
2022/09/15 02:27:26;;;;;;;15.63;9.38;;;;;;;14.96;93.14;100740.06;5014666;28;20036;-71
2022/09/15 02:29:57;;;;;;;13.60;9.23;;;;;;;14.95;92.82;100739.22;4996341;28;20180;-71
2022/09/15 02:32:26;;;;;;;14.95;9.88;;;;;;;14.94;92.83;100745.25;5016347;28;20039;-71
2022/09/15 02:34:54;;;;;;;13.30;8.90;;;;;;;14.90;92.40;100740.03;5018350;28;20033;-71
2022/09/15 02:37:22;;;;;;;12.68;9.38;;;;;;;14.87;92.19;100738.28;5000296;28;20494;-71
2022/09/15 02:39:53;;;;;;;12.77;9.48;;;;;;;14.86;92.38;100733.94;5016256;28;20040;-71
2022/09/15 02:42:23;;;;;;;13.20;9.82;;;;;;;14.90;92.50;100737.44;5016433;28;20036;-70
2022/09/15 02:44:48;;;;;;;12.95;9.75;;;;;;;14.82;91.93;100736.50;5016821;28;20049;-70
2022/09/15 02:47:14;;;;;;;12.57;8.90;;;;;;;14.81;91.93;100735.66;5018033;28;20048;-70
2022/09/15 02:49:39;;;;;;;13.95;8.90;;;;;;;14.78;91.89;100743.38;5016263;28;20119;-70
2022/09/15 02:52:05;;;;;;;15.98;9.38;;;;;;;14.75;91.87;100738.19;5001487;28;20067;-70
2022/09/15 02:54:31;;;;;;;13.80;9.48;;;;;;;14.73;91.78;100745.03;5018603;28;20037;-70
2022/09/15 02:56:56;;;;;;;13.63;9.38;;;;;;;14.73;92.09;100734.69;5017759;28;20087;-70
2022/09/15 02:59:21;;;;;;;13.15;9.82;;;;;;;14.73;92.23;100739.88;5019821;28;20041;-70
2022/09/15 03:01:47;;;;;;;11.82;8.93;;;;;;;14.73;92.06;100735.56;5012324;28;20661;-69
2022/09/15 03:04:12;;;;;;;12.38;9.32;;;;;;;14.72;91.83;100732.97;5017697;28;20039;-70
2022/09/15 03:06:37;;;;;;;12.02;9.10;;;;;;;14.71;91.97;100741.59;5020281;28;20057;-70
2022/09/15 03:09:06;;;;;;;12.32;9.07;;;;;;;14.67;92.31;100730.31;5016591;28;20056;-70
2022/09/15 03:11:33;;;;;;;11.80;9.68;;;;;;;14.65;92.35;100736.34;5002086;28;20563;-70
2022/09/15 03:14:01;;;;;;;15.15;9.23;;;;;;;14.67;92.77;100739.81;5016001;28;20026;-70
2022/09/15 03:16:29;;;;;;;12.90;9.30;;;;;;;14.67;93.28;100752.75;4997203;28;20088;-70
2022/09/15 03:18:58;;;;;;;11.93;9.90;;;;;;;14.72;93.40;100749.34;5014129;28;20024;-70
2022/09/15 03:21:24;;;;;;;13.17;9.73;;;;;;;14.67;93.53;100756.22;5013778;28;20068;-70
2022/09/15 03:23:50;;;;;;;13.30;9.95;;;;;;;14.73;93.53;100756.25;5015140;28;20099;-70
2022/09/15 03:26:16;;;;;;;13.25;9.13;;;;;;;14.73;94.24;100758.84;5013613;28;20034;-71
2022/09/15 03:28:42;;;;;;;16.65;9.82;;;;;;;14.72;94.30;100767.47;5015834;28;20029;-70
2022/09/15 03:31:08;;;;;;;14.90;9.85;;;;;;;14.75;94.23;100772.69;5010660;28;20496;-70
2022/09/15 03:33:35;;;;;;;13.60;9.45;;;;;;;14.76;94.73;100781.31;5016649;28;20051;-70
2022/09/15 03:36:01;;;;;;;14.20;9.52;;;;;;;14.80;94.71;100777.03;5009744;28;20111;-70
2022/09/15 03:38:27;;;;;;;16.27;10.50;;;;;;;14.81;94.83;100777.06;5013827;28;20037;-70
2022/09/15 03:41:09;;;;;;;12.52;9.50;;;;;;;14.84;95.12;100783.97;5014220;28;20032;-70
2022/09/15 03:43:36;;;;;;;15.15;9.75;;;;;;;14.82;94.99;100780.53;5012810;28;20051;-70
2022/09/15 03:46:05;;;;;;;16.05;9.80;;;;;;;14.80;94.84;100777.03;5013525;28;20725;-70
2022/09/15 03:48:33;;;;;;;14.95;9.82;;;;;;;14.87;94.61;100781.44;5012404;28;20182;-70
2022/09/15 03:50:58;;;;;;;16.33;10.27;;;;;;;14.86;95.09;100788.31;5015749;28;20464;-70
2022/09/15 03:53:24;;;;;;;18.17;10.23;;;;;;;14.88;95.07;100793.53;5014569;28;20030;-70
2022/09/15 03:55:49;;;;;;;14.13;9.95;;;;;;;14.84;94.78;100795.19;4993498;28;20040;-70
2022/09/15 03:58:17;;;;;;;14.93;10.23;;;;;;;14.86;95.01;100788.31;5011909;28;20555;-71
2022/09/15 04:00:43;;;;;;;12.02;9.77;;;;;;;14.85;94.98;100783.13;5015942;28;20029;-71
2022/09/15 04:03:08;;;;;;;16.67;10.13;;;;;;;14.87;94.96;100778.84;4998498;28;20033;-70
2022/09/15 04:05:35;;;;;;;14.75;9.73;;;;;;;14.86;94.64;100772.78;5015997;28;20120;-70
2022/09/15 04:08:01;;;;;;;13.85;10.00;;;;;;;14.89;94.41;100769.38;5017603;28;20053;-71
2022/09/15 04:10:26;;;;;;;12.98;9.55;;;;;;;14.81;94.64;100771.88;4994636;28;20144;-71
2022/09/15 04:12:52;;;;;;;16.27;10.48;;;;;;;14.84;95.15;100779.66;5017132;28;20079;-71
2022/09/15 04:15:19;;;;;;;13.75;9.88;;;;;;;14.82;94.82;100765.84;4997720;28;20141;-71
2022/09/15 04:17:44;;;;;;;13.43;9.57;;;;;;;14.87;94.41;100773.66;5016216;28;20034;-71
2022/09/15 04:20:10;;;;;;;15.52;9.98;;;;;;;14.85;94.21;100765.00;5014988;28;20035;-71
2022/09/15 04:22:35;;;;;;;13.68;9.60;;;;;;;14.85;94.33;100771.03;5015566;28;20037;-71
2022/09/15 04:25:01;;;;;;;15.27;9.88;;;;;;;14.84;94.91;100764.13;5016187;28;20053;-71
2022/09/15 04:27:26;;;;;;;13.20;9.60;;;;;;;14.85;94.75;100760.69;5016635;28;20061;-71
2022/09/15 04:29:52;;;;;;;14.55;9.82;;;;;;;14.81;94.32;100769.31;5001085;28;20064;-71
2022/09/15 04:32:19;;;;;;;15.85;9.93;;;;;;;14.84;94.25;100774.50;5018249;28;20369;-71
2022/09/15 04:34:44;;;;;;;12.77;9.90;;;;;;;14.84;94.42;100765.84;5015227;28;20484;-71
2022/09/15 04:37:10;;;;;;;13.65;9.38;;;;;;;14.83;94.54;100772.75;4999102;28;20033;-71
2022/09/15 04:39:35;;;;;;;12.60;9.75;;;;;;;14.89;94.99;100779.72;5000945;28;20037;-70
2022/09/15 04:42:04;;;;;;;13.52;10.02;;;;;;;14.84;94.30;100771.91;5019578;28;20142;-71
2022/09/15 04:44:31;;;;;;;13.95;10.25;;;;;;;14.82;94.80;100775.34;5011308;28;20056;-70
2022/09/15 04:46:56;;;;;;;13.95;10.15;;;;;;;14.83;94.85;100769.31;5015815;28;20021;-71
2022/09/15 04:49:23;;;;;;;16.10;9.77;;;;;;;14.84;94.71;100773.63;5017005;28;20037;-71
2022/09/15 04:51:48;;;;;;;15.07;9.93;;;;;;;14.83;94.57;100770.16;5015615;28;20173;-70
2022/09/15 04:54:14;;;;;;;14.70;10.10;;;;;;;14.87;94.42;100771.94;4996778;28;20591;-72
2022/09/15 04:56:39;;;;;;;15.30;10.30;;;;;;;14.83;94.17;100774.47;5016247;28;20662;-71
2022/09/15 04:59:05;;;;;;;14.40;9.57;;;;;;;14.85;93.96;100776.22;5016672;28;20088;-71
2022/09/15 05:01:33;;;;;;;13.70;9.70;;;;;;;14.82;94.06;100776.22;5017461;28;20029;-71
2022/09/15 05:04:02;;;;;;;14.48;9.85;;;;;;;14.86;93.70;100775.38;5018309;28;20029;-71
2022/09/15 05:06:28;;;;;;;12.32;9.85;;;;;;;14.80;93.37;100767.53;5016338;28;20472;-71
2022/09/15 05:08:55;;;;;;;12.63;9.57;;;;;;;14.74;93.60;100770.06;5000793;28;20129;-71
2022/09/15 05:11:21;;;;;;;12.32;9.40;;;;;;;14.72;93.47;100762.31;5016320;28;20164;-71
2022/09/15 05:13:47;;;;;;;12.55;9.50;;;;;;;14.73;93.87;100760.56;5017693;28;20029;-71
2022/09/15 05:16:16;;;;;;;14.35;9.93;;;;;;;14.71;93.99;100764.88;5018310;28;20033;-71
2022/09/15 05:18:44;;;;;;;13.27;9.48;;;;;;;14.70;94.06;100766.59;5013783;28;20021;-71
2022/09/15 05:21:12;;;;;;;14.70;9.88;;;;;;;14.70;93.97;100765.75;5015080;28;20036;-71
2022/09/15 05:23:38;;;;;;;11.95;9.82;;;;;;;14.69;93.79;100770.06;5015721;28;20661;-71
2022/09/15 05:26:07;;;;;;;13.70;9.95;;;;;;;14.68;94.43;100770.91;5019741;28;20468;-72
2022/09/15 05:28:35;;;;;;;13.52;9.57;;;;;;;14.70;94.68;100776.09;5014566;28;20041;-71
2022/09/15 05:31:01;;;;;;;12.20;10.55;;;;;;;14.69;94.33;100776.94;5019520;28;20048;-70
2022/09/15 05:33:27;;;;;;;16.98;10.15;;;;;;;14.73;94.29;100778.69;5018263;28;20017;-69
2022/09/15 05:35:54;;;;;;;12.32;9.55;;;;;;;14.73;94.56;100776.09;5002922;28;20040;-68
2022/09/15 05:38:20;;;;;;;15.02;10.20;;;;;;;14.74;94.52;100789.09;5014568;28;20435;-67
2022/09/15 05:40:45;;;;;;;13.52;9.93;;;;;;;14.77;94.41;100782.19;5016658;28;20029;-68
2022/09/15 05:43:11;;;;;;;15.65;9.75;;;;;;;14.77;94.66;100784.78;5017849;28;20507;-68
2022/09/15 05:45:36;;;;;;;12.95;9.73;;;;;;;14.79;94.80;100788.25;5019975;28;20106;-68
2022/09/15 05:48:03;;;;;;;12.07;9.73;;;;;;;14.79;94.95;100789.09;5017278;28;20113;-68
2022/09/15 05:50:29;;;;;;;18.10;10.95;;;;;;;14.79;94.84;100794.28;5010264;28;20361;-68
2022/09/15 05:52:55;;;;;;;17.10;9.98;;;;;;;14.77;94.71;100798.59;5012853;28;20033;-68
2022/09/15 05:55:20;;;;;;;16.90;10.13;;;;;;;14.80;95.00;100800.31;5015663;28;20037;-68
2022/09/15 05:57:46;;;;;;;15.43;10.07;;;;;;;14.81;95.41;100805.53;4996429;28;20041;-68
2022/09/15 06:00:12;;;;;;;16.40;10.43;;;;;;;14.82;95.51;100803.81;5001970;28;20030;-68
2022/09/15 06:02:37;;;;;;;13.38;10.38;;;;;;;14.80;95.27;100808.97;5020473;28;20652;-68
2022/09/15 06:05:03;;;;;;;13.27;10.35;;;;;;;14.79;95.73;100806.34;5017958;28;20507;-68
2022/09/15 06:07:28;;;;;;;14.48;9.85;;;;;;;14.82;95.74;100812.44;5020734;28;20476;-68
2022/09/15 06:09:54;;;;;;;16.15;10.15;;;;;;;14.80;95.92;100814.13;5021935;28;20533;-68
2022/09/15 06:12:19;;;;;;;14.93;10.15;;;;;;;14.83;96.05;100811.59;5015925;28;20037;-69
2022/09/15 06:14:49;;;;;;;14.93;10.32;;;;;;;14.88;96.01;100814.22;5001133;28;20041;-69
2022/09/15 06:17:15;;;;;;;14.30;10.38;;;;;;;14.91;95.97;100815.09;5018161;28;20292;-68
2022/09/15 06:19:40;;;;;;;16.95;10.05;;;;;;;14.92;96.16;100809.06;5018179;28;20037;-68
2022/09/15 06:22:06;;;;;;;16.77;9.95;;;;;;;14.90;96.01;100815.09;5023083;28;20037;-68
2022/09/15 06:24:31;;;;;;;17.67;10.05;;;;;;;14.90;96.14;100818.56;5014244;28;20125;-69
2022/09/15 06:26:56;;;;;;;13.18;9.77;;;;;;;14.89;96.51;100814.25;5019709;28;20075;-69
2022/09/15 06:29:22;;;;;;;13.65;9.25;;;;;;;14.91;96.22;100824.59;5019926;28;20037;-69
2022/09/15 06:31:47;;;;;;;14.57;9.70;;;;;;;14.94;96.34;100822.06;5003659;28;20033;-69
2022/09/15 06:34:12;;;;;;;13.68;9.18;;;;;;;14.92;96.28;100829.78;5019466;28;20391;-69
2022/09/15 06:36:38;;;;;;;13.70;8.98;;;;;;;14.97;96.40;100838.47;5018912;28;20079;-69
2022/09/15 06:39:03;;;;;;;12.75;8.93;;;;;;;14.96;96.51;100838.47;5021109;28;20029;-69
2022/09/15 06:41:29;;;;;;;11.82;8.77;;;;;;;15.06;96.53;100842.03;5002126;28;20079;-69
2022/09/15 06:43:55;;;;;;;13.77;8.50;;;;;;;15.05;96.00;100841.16;5019698;28;20392;-68
2022/09/15 06:46:23;;;;;;;16.42;9.13;;;;;;;15.03;96.56;100848.03;5020020;28;20025;-68
2022/09/15 06:48:50;;;;;;;12.32;8.90;;;;;;;15.09;95.90;100852.41;5017782;28;20507;-68
2022/09/15 06:51:18;;;;;;;15.88;8.52;;;;;;;15.13;95.56;100847.25;5019433;28;20454;-68
2022/09/15 06:53:44;;;;;;;12.25;8.65;;;;;;;15.12;95.53;100842.06;5018642;28;20045;-69
2022/09/15 06:56:18;;;;;;;11.50;8.30;;;;;;;15.21;95.81;100853.38;5018389;28;20048;-68
2022/09/15 06:58:45;;;;;;;10.68;8.10;;;;;;;15.25;95.97;100854.28;5015958;28;20596;-69
2022/09/15 07:01:22;;;;;;;16.23;8.63;;;;;;;15.29;96.68;100863.81;5020214;28;20025;-69
2022/09/15 07:03:47;;;;;;;12.68;7.82;;;;;;;15.31;96.75;100856.06;5016111;28;20037;-68
2022/09/15 07:06:13;;;;;;;12.73;7.63;;;;;;;15.35;95.38;100863.88;5015604;28;20022;-68
2022/09/15 07:08:39;;;;;;;11.77;7.53;;;;;;;15.35;95.63;100865.56;5012465;28;20052;-68
2022/09/15 07:11:06;;;;;;;12.27;7.53;;;;;;;15.42;95.53;100864.78;5010919;28;20060;-69
2022/09/15 07:13:31;;;;;;;12.13;7.25;;;;;;;15.42;95.21;100867.38;4993195;28;20045;-69
2022/09/15 07:15:59;;;;;;;9.90;6.85;;;;;;;15.47;95.42;100865.66;5011090;28;20091;-69
2022/09/15 07:18:26;;;;;;;14.23;7.22;;;;;;;15.50;96.12;100869.16;5011460;28;20124;-67
2022/09/15 07:20:56;;;;;;;10.77;6.68;;;;;;;15.49;94.76;100870.03;5009396;28;20033;-67
2022/09/15 07:23:22;;;;;;;11.65;6.28;;;;;;;15.50;94.96;100866.56;5013434;28;20025;-67
2022/09/15 07:25:47;;;;;;;12.15;6.85;;;;;;;15.54;95.27;100870.06;5011334;28;20107;-67
2022/09/15 07:28:13;;;;;;;13.75;6.97;;;;;;;15.54;94.76;100872.66;4995842;28;20076;-68
2022/09/15 07:30:40;;;;;;;12.65;6.75;;;;;;;15.57;94.85;100878.72;5012465;28;20034;-67
2022/09/15 07:33:07;;;;;;;13.82;6.97;;;;;;;15.61;95.53;100886.53;5007357;28;20030;-67
2022/09/15 07:35:32;;;;;;;13.13;7.50;;;;;;;15.61;94.36;100886.53;5009375;28;20064;-67
2022/09/15 07:37:59;;;;;;;10.85;6.35;;;;;;;15.65;96.23;100880.53;5015818;28;20397;-68
2022/09/15 07:40:25;;;;;;;12.63;7.30;;;;;;;15.67;96.47;100884.03;5011204;28;20492;-68
2022/09/15 07:42:51;;;;;;;13.30;6.97;;;;;;;15.71;95.82;100886.66;5009878;28;20084;-66
2022/09/15 07:45:16;;;;;;;12.68;7.28;;;;;;;15.74;96.52;100884.06;5012164;28;20136;-67
2022/09/15 07:47:41;;;;;;;15.63;7.20;;;;;;;15.76;95.96;100891.84;5009026;28;20026;-68
2022/09/15 07:50:07;;;;;;;12.27;7.03;;;;;;;15.76;95.39;100897.91;5010136;28;20508;-67
2022/09/15 07:52:32;;;;;;;16.05;7.03;;;;;;;15.78;96.12;100900.53;4992670;28;20040;-67
2022/09/15 07:54:57;;;;;;;12.30;7.78;;;;;;;15.79;95.78;100899.66;5009195;28;20491;-68
2022/09/15 07:57:23;;;;;;;12.48;6.72;;;;;;;15.76;94.91;100894.44;5010210;28;20030;-67
2022/09/15 07:59:48;;;;;;;11.75;6.93;;;;;;;15.79;94.79;100900.53;5011135;28;20373;-67
2022/09/15 08:02:19;;;;;;;9.23;6.03;;;;;;;15.80;94.81;100898.81;5009330;28;20128;-68
2022/09/15 08:04:44;;;;;;;13.55;6.25;;;;;;;15.78;94.60;100898.81;5012363;28;20027;-66
2022/09/15 08:07:11;;;;;;;11.48;7.20;;;;;;;15.84;94.58;100904.91;5008965;28;20018;-66
2022/09/15 08:09:37;;;;;;;14.05;6.65;;;;;;;15.87;94.64;100908.38;5013788;28;20077;-67
2022/09/15 08:12:03;;;;;;;10.82;5.57;;;;;;;15.91;95.49;100904.09;5016583;28;20091;-67
2022/09/15 08:14:30;;;;;;;10.35;6.35;;;;;;;15.93;94.90;100918.78;5014732;28;20051;-67
2022/09/15 08:16:59;;;;;;;10.75;6.03;;;;;;;15.99;95.09;100913.63;5014609;28;20664;-67
2022/09/15 08:19:25;;;;;;;;;;;;;;;16.09;94.27;100911.97;5013687;28;20029;-67
2022/09/15 08:21:50;;;;;;;12.27;6.20;;;;;;;16.01;95.02;100911.03;5013367;28;21188;-67
2022/09/15 08:24:16;;;;;;;11.05;6.03;;;;;;;16.02;93.66;100903.28;4985448;28;20029;-66
2022/09/15 08:26:41;;;;;;;11.90;5.72;;;;;;;16.04;92.92;100917.13;4996336;28;20033;-66
2022/09/15 08:29:08;;;;;;;9.88;5.55;;;;;;;16.03;93.64;100915.41;5015513;28;20034;-66
2022/09/15 08:31:33;;;;;;;9.18;5.68;;;;;;;16.05;93.67;100918.84;5012257;28;20111;-66
2022/09/15 08:34:02;;;;;;;9.90;6.20;;;;;;;16.09;93.99;100928.41;5011774;28;20622;-66
2022/09/15 08:36:28;;;;;;;11.40;6.65;;;;;;;16.09;94.17;100925.81;5010893;28;20407;-66
2022/09/15 08:38:54;;;;;;;11.32;7.22;;;;;;;16.11;94.34;100927.53;5012014;28;20496;-67
2022/09/15 08:41:32;;;;;;;13.15;6.60;;;;;;;16.18;94.61;100929.31;5006046;28;20112;-67
2022/09/15 08:44:09;;;;;;;14.52;7.05;;;;;;;16.19;94.09;100924.13;5011400;28;20021;-66
2022/09/15 08:46:50;;;;;;;11.18;7.30;;;;;;;16.23;94.07;100936.28;5013917;28;20037;-67
2022/09/15 08:49:24;;;;;;;10.93;6.50;;;;;;;16.25;94.22;100936.28;5012849;28;20114;-66
2022/09/15 08:51:51;;;;;;;11.38;7.50;;;;;;;16.23;92.88;100941.47;5011655;28;20113;-66
2022/09/15 08:54:24;;;;;;;8.15;6.60;;;;;;;16.31;93.69;100944.09;5007975;28;20032;-66
2022/09/15 08:56:50;;;;;;;14.73;7.28;;;;;;;16.35;93.60;100945.84;5011625;28;20033;-66
2022/09/15 08:59:18;;;;;;;12.48;7.43;;;;;;;16.37;92.07;100949.31;5011911;28;20034;-66
2022/09/15 09:02:29;;;;;;;14.10;7.63;;;;;;;16.45;92.81;100952.84;4993620;28;20044;-67
2022/09/15 09:05:04;;;;;;;9.52;6.40;;;;;;;16.42;93.17;100950.22;5012705;28;20056;-66
2022/09/15 09:08:01;;;;;;;12.85;6.30;;;;;;;16.46;92.04;100961.50;5011130;28;20025;-65
2022/09/15 09:10:40;;;;;;;13.35;5.70;;;;;;;16.41;90.69;100958.88;5009775;28;20050;-66
2022/09/15 09:13:28;;;;;;;10.23;5.55;;;;;;;16.42;91.11;100963.19;4996954;28;20026;-66
2022/09/15 09:16:25;;;;;;;8.60;5.22;;;;;;;16.42;90.32;100965.78;5004500;28;20036;-66
2022/09/15 09:18:57;;;;;;;11.88;5.43;;;;;;;16.43;91.78;100971.84;5010538;28;20083;-66
2022/09/15 09:21:28;;;;;;;10.75;5.07;;;;;;;16.42;91.11;100967.50;5010709;28;20057;-66
2022/09/15 09:24:03;;;;;;;11.43;5.20;;;;;;;16.45;89.94;100978.78;5010532;28;20827;-66
2022/09/15 09:26:32;;;;;;;8.95;4.30;;;;;;;16.42;89.42;100973.56;5009241;28;20668;-66
2022/09/15 09:29:00;;;;;;;8.25;4.35;;;;;;;16.41;89.74;100977.03;5009462;28;20094;-66
2022/09/15 09:31:27;;;;;;;10.45;4.90;;;;;;;16.42;89.74;100970.13;4991245;28;20563;-66
2022/09/15 09:34:30;;;;;;;11.02;4.88;;;;;;;16.46;89.86;100977.94;4992772;28;20030;-66
2022/09/15 09:36:58;;;;;;;9.27;4.65;;;;;;;16.43;89.45;100977.03;5007976;28;20563;-66
2022/09/15 09:39:24;;;;;;;11.13;4.35;;;;;;;16.35;89.09;100979.59;5006669;28;20040;-66
2022/09/15 09:41:50;;;;;;;9.25;4.05;;;;;;;16.36;88.19;100981.31;5006166;28;20038;-66
2022/09/15 09:44:17;;;;;;;7.75;4.05;;;;;;;16.38;88.83;100983.91;5009677;28;20156;-66
2022/09/15 09:46:43;;;;;;;9.30;3.78;;;;;;;16.32;89.69;100974.41;5013286;28;20049;-67
2022/09/15 09:49:22;;;;;;;8.20;3.78;;;;;;;16.39;89.65;100986.56;5003588;28;20124;-67
2022/09/15 09:51:56;;;;;;;9.68;3.85;;;;;;;16.33;88.34;100976.13;5010212;28;20057;-67
2022/09/15 09:54:27;;;;;;;7.10;3.05;;;;;;;16.30;88.27;100981.28;4990517;28;20040;-66
2022/09/15 09:56:54;;;;;;;8.93;3.38;;;;;;;16.30;88.46;100986.47;5012624;28;20072;-65
2022/09/15 09:59:30;;;;;;;12.65;3.53;;;;;;;16.32;89.59;100987.38;5012623;28;20443;-65
2022/09/15 10:02:11;;;;;;;7.93;3.67;;;;;;;16.36;89.77;100983.91;5010581;28;20040;-66
2022/09/15 10:05:06;;;;;;;7.30;3.38;;;;;;;16.31;89.83;100977.81;5008589;28;20041;-65
2022/09/15 10:07:33;;;;;;;8.15;3.63;;;;;;;16.30;90.13;100981.28;4991524;28;20439;-66
2022/09/15 10:10:00;;;;;;;6.53;3.15;;;;;;;16.34;90.82;100978.72;5010690;28;20056;-66
2022/09/15 10:12:38;;;;;;;9.90;3.55;;;;;;;16.40;91.90;100975.31;5010365;28;20730;-65
2022/09/15 10:15:07;;;;;;;9.75;3.35;;;;;;;16.45;91.55;100972.75;4994097;28;20040;-65
2022/09/15 10:17:35;;;;;;;7.10;3.35;;;;;;;16.51;92.94;100975.38;5012540;28;20040;-65
2022/09/15 10:20:03;;;;;;;9.40;3.73;;;;;;;16.53;91.75;100971.91;5013590;28;20412;-65
2022/09/15 10:22:37;;;;;;;10.27;3.53;;;;;;;16.58;92.16;100982.31;5008497;28;22314;-66
2022/09/15 10:25:25;;;;;;;8.63;3.70;;;;;;;16.66;91.52;100979.75;5004277;28;20514;-65
2022/09/15 10:28:13;;;;;;;10.82;4.47;;;;;;;16.68;91.67;100972.84;5014488;28;20633;-66
2022/09/15 10:30:55;;;;;;;14.38;4.50;;;;;;;16.69;91.00;100978.06;5012928;28;20776;-66
2022/09/15 10:33:26;;;;;;;9.70;4.22;;;;;;;16.66;90.43;100979.75;5012091;28;20068;-65
2022/09/15 10:35:53;;;;;;;13.05;4.07;;;;;;;16.54;90.18;100971.03;5012169;28;20036;-67
2022/09/15 10:38:41;;;;;;;6.40;3.90;;;;;;;16.59;88.08;100992.72;5010411;28;20131;-67
2022/09/15 10:41:30;;;;;;;12.57;2.13;;;;;;;16.44;84.50;100997.84;5011221;28;20029;-66
2022/09/15 10:44:04;;;;;;;12.25;1.58;;;;;;;16.27;84.64;101002.03;5011708;28;20116;-66
2022/09/15 10:46:58;;;;;;;5.00;1.10;;;;;;;16.25;85.45;101004.59;4999183;28;20121;-65
2022/09/15 10:49:44;;;;;;;6.38;1.10;;;;;;;16.17;84.72;101008.00;5013423;28;20125;-66
2022/09/15 10:52:35;;;;;;;3.13;0.95;;;;;;;16.22;87.28;101001.13;5015713;28;20052;-67
2022/09/15 10:55:12;;;;;;;7.13;1.10;;;;;;;16.19;86.25;100996.78;5000050;28;20064;-67
2022/09/15 10:57:59;;;;;;;4.38;1.00;;;;;;;16.17;85.48;100993.31;5008965;28;20029;-67
2022/09/15 11:00:32;;;;;;;4.20;0.98;;;;;;;16.09;86.50;100990.66;5016387;28;20456;-67
2022/09/15 11:03:35;;;;;;;3.53;0.80;;;;;;;16.20;87.45;100988.16;4995212;28;20611;-69
2022/09/15 11:06:09;;;;;;;6.28;1.17;;;;;;;16.19;88.02;100999.38;5001949;28;20076;-69
2022/09/15 11:08:53;;;;;;;10.07;1.10;;;;;;;16.22;85.94;100993.34;5012097;28;20026;-68
2022/09/15 11:11:56;;;;;;;7.22;1.20;;;;;;;16.26;87.80;100984.72;5010950;28;20030;-69
2022/09/15 11:14:38;;;;;;;7.72;1.10;;;;;;;16.31;86.99;100986.47;5014487;28;20037;-68
2022/09/15 11:17:29;;;;;;;6.47;1.00;;;;;;;16.46;87.84;100977.06;5012390;28;20029;-69
2022/09/15 11:20:24;;;;;;;5.97;1.00;;;;;;;16.58;87.60;100977.13;5013823;28;20112;-69
2022/09/15 11:23:11;;;;;;;4.15;0.68;;;;;;;16.89;89.06;100983.38;5013581;28;20029;-69
2022/09/15 11:25:49;;;;;;;7.03;1.00;;;;;;;17.50;84.90;100977.47;5013563;28;20468;-69
2022/09/15 11:28:35;;;;;;;6.85;0.95;;;;;;;18.19;83.36;100974.03;5014166;28;20025;-68
2022/09/15 11:31:01;;;;;;;4.35;0.73;;;;;;;18.62;76.28;100979.13;5007827;28;20501;-68